createdAt,value
2018-03-03T00:01:29.646Z,123.07
2018-03-03T00:03:57.076Z,115.20
2018-03-03T00:06:24.495Z,112.80
2018-03-03T00:08:51.910Z,123.82
2018-03-03T00:11:19.338Z,126.07
2018-03-03T00:13:46.754Z,119.93
2018-03-03T00:16:14.190Z,116.78
2018-03-03T00:18:41.613Z,124.35
2018-03-03T00:21:09.019Z,122.62
2018-03-03T00:23:36.455Z,121.03
2018-03-03T00:26:03.917Z,115.22
2018-03-03T00:28:31.347Z,120.68
2018-03-03T00:30:58.762Z,109.12
2018-03-03T00:33:26.178Z,117.35
2018-03-03T00:35:53.599Z,119.18
2018-03-03T00:38:21.013Z,115.50
2018-03-03T00:40:48.454Z,119.30
2018-03-03T00:43:15.881Z,119.07
2018-03-03T00:45:43.294Z,108.25
2018-03-03T00:48:10.719Z,106.68
2018-03-03T00:50:38.137Z,118.05
2018-03-03T00:53:05.568Z,117.62
2018-03-03T00:55:32.985Z,126.18
2018-03-03T00:58:00.406Z,118.95
2018-03-03T01:00:27.825Z,110.65
2018-03-03T01:02:55.238Z,117.05
2018-03-03T01:05:22.678Z,123.03
2018-03-03T01:07:50.090Z,120.40
2018-03-03T01:10:17.518Z,119.82
2018-03-03T01:12:44.938Z,113.90
2018-03-03T01:15:12.367Z,114.40
2018-03-03T01:17:39.798Z,113.85
2018-03-03T01:20:07.219Z,115.20
2018-03-03T01:22:34.651Z,114.68
2018-03-03T01:25:02.082Z,124.38
2018-03-03T01:27:29.512Z,113.97
2018-03-03T01:29:56.950Z,114.40
2018-03-03T01:32:24.371Z,110.35
2018-03-03T01:34:51.785Z,116.85
2018-03-03T01:37:19.211Z,116.25
2018-03-03T01:39:46.693Z,120.70
2018-03-03T01:42:14.107Z,119.45
2018-03-03T01:44:41.526Z,119.40
2018-03-03T01:47:08.970Z,119.35
2018-03-03T01:49:36.391Z,121.65
2018-03-03T01:52:03.801Z,116.22
2018-03-03T01:54:31.221Z,115.97
2018-03-03T01:56:58.630Z,113.35
2018-03-03T01:59:26.050Z,111.60
2018-03-03T02:01:53.471Z,107.35
2018-03-03T02:04:20.885Z,111.90
2018-03-03T02:06:48.314Z,112.53
2018-03-03T02:09:15.731Z,118.05
2018-03-03T02:11:43.208Z,112.70
2018-03-03T02:14:10.622Z,118.53
2018-03-03T02:16:38.041Z,111.95
2018-03-03T02:19:05.470Z,115.68
2018-03-03T02:21:32.877Z,115.78
2018-03-03T02:24:00.295Z,106.95
2018-03-03T02:26:27.718Z,116.05
2018-03-03T02:28:55.134Z,111.50
2018-03-03T02:31:22.570Z,110.10
2018-03-03T02:33:49.989Z,105.40
2018-03-03T02:36:17.408Z,111.95
2018-03-03T02:38:44.832Z,120.60
2018-03-03T02:41:12.245Z,103.93
2018-03-03T02:43:39.683Z,110.75
2018-03-03T02:46:07.098Z,113.37
2018-03-03T02:48:34.511Z,104.40
2018-03-03T02:51:01.953Z,117.93
2018-03-03T02:53:29.357Z,116.80
2018-03-03T02:55:56.782Z,112.78
2018-03-03T02:58:24.209Z,111.68
2018-03-03T03:00:51.647Z,115.85
2018-03-03T03:03:19.070Z,107.45
2018-03-03T03:05:46.490Z,113.35
2018-03-03T03:08:13.920Z,101.05
2018-03-03T03:10:41.354Z,117.68
2018-03-03T03:13:08.773Z,119.95
2018-03-03T03:15:36.202Z,109.35
2018-03-03T03:18:03.618Z,108.20
2018-03-03T03:20:31.057Z,104.87
2018-03-03T03:22:58.490Z,102.38
2018-03-03T03:25:25.905Z,122.68
2018-03-03T03:27:53.326Z,111.97
2018-03-03T03:30:20.748Z,114.40
2018-03-03T03:32:48.170Z,106.93
2018-03-03T03:35:15.588Z,103.93
2018-03-03T03:37:43.018Z,103.25
2018-03-03T03:40:10.445Z,107.35
2018-03-03T03:42:37.858Z,122.18
2018-03-03T03:45:05.290Z,111.12
2018-03-03T03:47:32.713Z,111.37
2018-03-03T03:50:00.134Z,111.00
2018-03-03T03:52:27.551Z,106.53
2018-03-03T03:54:54.994Z,121.05
2018-03-03T03:57:22.409Z,104.32
2018-03-03T03:59:49.826Z,105.97
2018-03-03T04:02:17.250Z,110.93
2018-03-03T04:04:44.668Z,118.28
2018-03-03T04:07:12.094Z,105.87
2018-03-03T04:09:39.510Z,113.70
2018-03-03T04:12:06.948Z,102.12
2018-03-03T04:14:34.364Z,109.40
2018-03-03T04:17:01.774Z,104.32
2018-03-03T04:19:29.197Z,111.88
2018-03-03T04:21:56.621Z,112.12
2018-03-03T04:24:24.050Z,110.60
2018-03-03T04:26:51.482Z,108.40
2018-03-03T04:29:18.913Z,105.68
2018-03-03T04:31:46.349Z,101.32
2018-03-03T04:34:13.760Z,109.95
2018-03-03T04:36:41.182Z,107.12
2018-03-03T04:39:08.593Z,106.35
2018-03-03T04:41:36.023Z,112.90
2018-03-03T04:44:03.430Z,99.35
2018-03-03T04:46:30.845Z,104.87
2018-03-03T04:48:58.265Z,108.50
2018-03-03T04:51:25.686Z,104.63
2018-03-03T04:53:53.115Z,105.43
2018-03-03T04:56:20.541Z,107.07
2018-03-03T05:02:06.525Z,108.75
2018-03-03T05:07:35.689Z,107.75
2018-03-03T05:10:03.143Z,97.53
2018-03-03T05:12:46.214Z,103.65
2018-03-03T05:15:19.125Z,103.90
2018-03-03T05:17:52.081Z,117.78
2018-03-03T05:20:24.946Z,103.82
2018-03-03T05:22:57.858Z,110.32
2018-03-03T05:28:44.385Z,108.57
2018-03-03T05:31:17.486Z,106.65
2018-03-03T05:33:50.366Z,109.37
2018-03-03T05:36:23.321Z,108.78
2018-03-03T05:38:56.246Z,107.57
2018-03-03T05:41:29.400Z,105.40
2018-03-03T05:43:58.747Z,104.68
2018-03-03T05:49:37.469Z,102.12
2018-03-03T05:52:04.911Z,103.87
2018-03-03T05:54:37.798Z,105.10
2018-03-03T05:57:11.800Z,109.95
2018-03-03T05:59:44.745Z,104.68
2018-03-03T06:02:17.711Z,106.32
2018-03-03T06:04:45.126Z,103.68
2018-03-03T06:07:18.151Z,114.88
2018-03-03T06:09:55.475Z,106.65
2018-03-03T06:12:22.916Z,108.35
2018-03-03T06:14:50.337Z,107.47
2018-03-03T06:17:17.762Z,107.30
2018-03-03T06:19:45.205Z,105.37
2018-03-03T06:22:12.610Z,105.95
2018-03-03T06:24:40.046Z,109.30
2018-03-03T06:27:07.471Z,107.20
2018-03-03T06:29:34.898Z,103.32
2018-03-03T06:32:02.331Z,117.50
2018-03-03T06:34:29.750Z,98.05
2018-03-03T06:36:57.171Z,98.07
2018-03-03T06:39:24.590Z,110.10
2018-03-03T06:41:52.002Z,108.10
2018-03-03T06:44:19.459Z,103.93
2018-03-03T06:46:46.855Z,102.85
2018-03-03T06:49:14.286Z,101.85
2018-03-03T06:51:41.701Z,110.50
2018-03-03T06:54:09.113Z,112.60
2018-03-03T06:56:36.543Z,106.37
2018-03-03T06:59:03.961Z,106.32
2018-03-03T07:01:31.397Z,101.97
2018-03-03T07:03:58.809Z,103.20
2018-03-03T07:06:26.225Z,107.68
2018-03-03T07:08:53.642Z,113.25
2018-03-03T07:11:21.049Z,110.65
2018-03-03T07:13:48.480Z,99.32
2018-03-03T07:16:15.894Z,105.60
2018-03-03T07:18:43.314Z,113.93
2018-03-03T07:21:10.754Z,108.65
2018-03-03T07:23:38.162Z,113.65
2018-03-03T07:26:05.582Z,93.60
2018-03-03T07:28:32.997Z,101.15
2018-03-03T07:31:00.409Z,101.78
2018-03-03T07:33:27.837Z,107.80
2018-03-03T07:35:55.247Z,99.45
2018-03-03T07:38:22.687Z,106.30
2018-03-03T07:40:50.109Z,106.18
2018-03-03T07:43:17.518Z,109.00
2018-03-03T07:45:44.952Z,100.45
2018-03-03T07:48:12.362Z,105.15
2018-03-03T07:50:44.146Z,106.82
2018-03-03T07:53:11.578Z,102.75
2018-03-03T07:55:38.996Z,102.00
2018-03-03T07:58:06.410Z,98.18
2018-03-03T08:00:33.821Z,97.60
2018-03-03T08:03:01.246Z,101.47
2018-03-03T08:05:28.676Z,101.47
2018-03-03T08:07:56.110Z,104.60
2018-03-03T08:10:23.539Z,109.47
2018-03-03T08:12:50.985Z,107.10
2018-03-03T08:15:18.385Z,107.65
2018-03-03T08:17:45.800Z,98.80
2018-03-03T08:20:13.218Z,106.65
2018-03-03T08:22:40.635Z,98.07
2018-03-03T08:25:08.048Z,102.53
2018-03-03T08:27:35.487Z,103.82
2018-03-03T08:30:02.927Z,102.53
2018-03-03T08:32:30.378Z,98.90
2018-03-03T08:34:57.815Z,103.80
2018-03-03T08:37:25.238Z,105.45
2018-03-03T08:39:52.671Z,102.82
2018-03-03T08:42:20.087Z,104.05
2018-03-03T08:44:47.521Z,109.82
2018-03-03T08:47:14.938Z,104.07
2018-03-03T08:49:42.358Z,110.28
2018-03-03T08:52:09.807Z,100.72
2018-03-03T08:54:37.235Z,100.05
2018-03-03T08:57:04.659Z,99.22
2018-03-03T08:59:32.111Z,102.72
2018-03-03T09:01:59.526Z,97.07
2018-03-03T09:04:27.001Z,96.78
2018-03-03T09:06:54.382Z,110.97
2018-03-03T09:09:21.879Z,110.45
2018-03-03T09:11:49.299Z,102.57
2018-03-03T09:14:16.730Z,102.22
2018-03-03T09:16:44.155Z,98.70
2018-03-03T09:19:11.574Z,102.30
2018-03-03T09:21:38.997Z,100.28
2018-03-03T09:24:06.422Z,96.18
2018-03-03T09:26:33.842Z,93.90
2018-03-03T09:29:01.279Z,101.60
2018-03-03T09:31:28.739Z,104.30
2018-03-03T09:33:56.630Z,107.78
2018-03-03T09:36:24.044Z,99.15
2018-03-03T09:38:51.497Z,102.12
2018-03-03T09:41:18.914Z,109.72
2018-03-03T09:43:46.367Z,102.18
2018-03-03T09:46:13.782Z,110.53
2018-03-03T09:48:41.206Z,103.82
2018-03-03T09:51:08.642Z,100.82
2018-03-03T09:53:36.065Z,95.57
2018-03-03T09:56:03.491Z,104.47
2018-03-03T09:58:30.911Z,99.18
2018-03-03T10:00:58.328Z,106.15
2018-03-03T10:03:25.850Z,106.57
2018-03-03T10:05:53.258Z,105.28
2018-03-03T10:08:20.706Z,107.90
2018-03-03T10:10:48.122Z,103.12
2018-03-03T10:13:15.543Z,109.95
2018-03-03T10:15:42.980Z,101.28
2018-03-03T10:18:10.410Z,104.12
2018-03-03T10:20:37.838Z,103.50
2018-03-03T10:23:05.265Z,103.22
2018-03-03T10:25:32.692Z,95.50
2018-03-03T10:28:00.106Z,92.90
2018-03-03T10:30:27.565Z,90.23
2018-03-03T10:32:54.969Z,86.20
2018-03-03T10:35:22.395Z,87.53
2018-03-03T10:37:49.797Z,88.73
2018-03-03T10:40:17.214Z,85.87
2018-03-03T10:42:44.630Z,97.67
2018-03-03T10:45:12.031Z,92.33
2018-03-03T10:47:39.453Z,85.67
2018-03-03T10:50:06.930Z,87.80
2018-03-03T10:52:34.346Z,82.40
2018-03-03T10:55:01.760Z,94.77
2018-03-03T10:57:29.169Z,82.50
2018-03-03T10:59:56.593Z,83.47
2018-03-03T11:02:24.006Z,83.40
2018-03-03T11:04:51.406Z,83.63
2018-03-03T11:07:18.815Z,84.10
2018-03-03T11:09:46.221Z,83.43
2018-03-03T11:12:13.651Z,90.07
2018-03-03T11:14:41.073Z,89.07
2018-03-03T11:17:08.477Z,81.13
2018-03-03T11:19:35.904Z,86.03
2018-03-03T11:22:03.323Z,84.10
2018-03-03T11:24:31.672Z,86.17
2018-03-03T11:26:59.105Z,81.50
2018-03-03T11:29:27.113Z,90.03
2018-03-03T11:31:54.532Z,99.57
2018-03-03T11:34:21.949Z,86.10
2018-03-03T11:36:49.398Z,89.07
2018-03-03T11:39:16.803Z,90.20
2018-03-03T11:41:44.211Z,89.53
2018-03-03T11:44:11.707Z,82.10
2018-03-03T11:46:39.111Z,87.13
2018-03-03T11:49:06.539Z,80.90
2018-03-03T11:51:33.974Z,87.93
2018-03-03T11:54:01.396Z,85.30
2018-03-03T11:56:28.828Z,80.80
2018-03-03T11:58:56.689Z,82.77
2018-03-03T12:01:27.401Z,86.47
2018-03-03T12:03:54.852Z,80.50
2018-03-03T12:06:22.282Z,71.20
2018-03-03T12:08:49.723Z,79.40
2018-03-03T12:11:17.121Z,79.37
2018-03-03T12:13:44.615Z,83.27
2018-03-03T12:16:12.396Z,83.93
2018-03-03T12:18:39.826Z,91.90
2018-03-03T12:21:07.246Z,81.33
2018-03-03T12:23:34.686Z,77.67
2018-03-03T12:26:02.101Z,84.77
2018-03-03T12:28:29.523Z,79.50
2018-03-03T12:30:56.941Z,83.30
2018-03-03T12:33:24.353Z,81.60
2018-03-03T12:35:51.767Z,89.37
2018-03-03T12:38:19.197Z,75.43
2018-03-03T12:40:46.610Z,85.97
2018-03-03T12:43:14.046Z,80.93
2018-03-03T12:45:41.462Z,87.20
2018-03-03T12:48:08.954Z,84.13
2018-03-03T12:50:36.388Z,85.97
2018-03-03T12:53:03.971Z,84.93
2018-03-03T12:55:31.394Z,88.70
2018-03-03T12:57:58.847Z,90.10
2018-03-03T13:00:26.266Z,87.67
2018-03-03T13:02:53.694Z,86.27
2018-03-03T13:05:21.121Z,96.90
2018-03-03T13:07:48.539Z,90.30
2018-03-03T13:10:15.946Z,94.60
2018-03-03T13:12:43.430Z,86.70
2018-03-03T13:15:10.826Z,95.23
2018-03-03T13:17:38.237Z,96.33
2018-03-03T13:20:05.637Z,90.50
2018-03-03T13:22:33.054Z,96.90
2018-03-03T13:25:00.458Z,95.50
2018-03-03T13:27:27.932Z,97.37
2018-03-03T13:29:55.285Z,90.60
2018-03-03T13:32:22.697Z,93.00
2018-03-03T13:34:50.133Z,89.30
2018-03-03T13:37:17.552Z,83.83
2018-03-03T13:39:44.989Z,98.17
2018-03-03T13:42:12.415Z,94.40
2018-03-03T13:44:39.830Z,97.50
2018-03-03T13:47:07.264Z,92.30
2018-03-03T13:49:34.689Z,89.67
2018-03-03T13:52:02.119Z,96.53
2018-03-03T13:54:29.526Z,99.70
2018-03-03T13:56:56.966Z,92.70
2018-03-03T13:59:24.382Z,96.47
2018-03-03T14:01:51.852Z,92.53
2018-03-03T14:04:19.253Z,87.13
2018-03-03T14:06:46.707Z,79.80
2018-03-03T14:09:14.122Z,80.33
2018-03-03T14:11:41.521Z,77.73
2018-03-03T14:14:08.966Z,80.67
2018-03-03T14:16:36.409Z,82.97
2018-03-03T14:19:03.845Z,77.70
2018-03-03T14:21:31.274Z,78.80
2018-03-03T14:23:58.674Z,82.00
2018-03-03T14:26:26.109Z,78.97
2018-03-03T14:28:53.517Z,77.33
2018-03-03T14:31:20.946Z,72.40
2018-03-03T14:33:48.369Z,79.53
2018-03-03T14:36:15.798Z,75.60
2018-03-03T14:38:43.212Z,77.20
2018-03-03T14:41:10.634Z,78.07
2018-03-03T14:43:38.102Z,80.67
2018-03-03T14:46:05.501Z,83.87
2018-03-03T14:48:32.950Z,81.47
2018-03-03T14:51:00.399Z,74.20
2018-03-03T14:53:27.803Z,74.37
2018-03-03T14:55:56.270Z,80.23
2018-03-03T14:58:23.750Z,73.33
2018-03-03T15:00:51.189Z,71.40
2018-03-03T15:03:19.009Z,67.83
2018-03-03T15:05:46.434Z,70.00
2018-03-03T15:08:13.911Z,73.40
2018-03-03T15:10:41.342Z,71.17
2018-03-03T15:13:08.766Z,70.87
2018-03-03T15:15:36.189Z,70.33
2018-03-03T15:18:03.662Z,67.67
2018-03-03T15:20:31.103Z,75.07
2018-03-03T15:22:58.542Z,69.10
2018-03-03T15:25:25.959Z,67.23
2018-03-03T15:27:53.369Z,70.60
2018-03-03T15:30:20.790Z,70.13
2018-03-03T15:32:48.204Z,68.90
2018-03-03T15:35:15.603Z,73.17
2018-03-03T15:37:43.026Z,73.70
2018-03-03T15:40:10.439Z,75.43
2018-03-03T15:42:37.862Z,74.93
2018-03-03T15:45:05.282Z,69.97
2018-03-03T15:47:32.682Z,72.90
2018-03-03T15:50:00.100Z,72.90
2018-03-03T15:52:27.545Z,71.20
2018-03-03T15:54:54.942Z,72.57
2018-03-03T15:57:22.349Z,69.67
2018-03-03T15:59:49.755Z,73.10
2018-03-03T16:02:17.182Z,76.07
2018-03-03T16:04:44.581Z,77.70
2018-03-03T16:07:12.026Z,73.47
2018-03-03T16:09:39.435Z,74.13
2018-03-03T16:12:06.843Z,71.27
2018-03-03T16:14:34.255Z,71.97
2018-03-03T16:17:01.669Z,75.37
2018-03-03T16:19:29.086Z,68.10
2018-03-03T16:21:56.489Z,68.77
2018-03-03T16:24:24.005Z,77.10
2018-03-03T16:26:51.434Z,78.10
2018-03-03T16:29:18.837Z,74.67
2018-03-03T16:31:46.274Z,73.47
2018-03-03T16:34:13.693Z,74.30
2018-03-03T16:36:41.109Z,76.65
2018-03-03T16:39:08.529Z,80.97
2018-03-03T16:41:35.946Z,79.75
2018-03-03T16:44:03.378Z,78.68
2018-03-03T16:46:30.804Z,79.70
2018-03-03T16:48:58.283Z,77.00
2018-03-03T16:51:25.649Z,83.57
2018-03-03T16:53:53.066Z,86.80
2018-03-03T16:56:20.485Z,80.53
2018-03-03T16:58:47.910Z,81.10
2018-03-03T17:01:15.349Z,81.00
2018-03-03T17:03:42.786Z,79.70
2018-03-03T17:06:10.209Z,82.15
2018-03-03T17:08:37.631Z,85.03
2018-03-03T17:11:05.051Z,87.95
2018-03-03T17:13:32.486Z,88.45
2018-03-03T17:15:59.938Z,77.32
2018-03-03T17:18:27.354Z,85.65
2018-03-03T17:20:55.238Z,83.07
2018-03-03T17:23:22.674Z,82.93
2018-03-03T17:25:50.129Z,80.25
2018-03-03T17:28:17.551Z,80.75
2018-03-03T17:30:44.975Z,82.93
2018-03-03T17:33:12.401Z,83.15
2018-03-03T17:35:39.817Z,83.62
2018-03-03T17:38:07.287Z,86.93
2018-03-03T17:40:34.689Z,85.32
2018-03-03T17:43:02.104Z,89.13
2018-03-03T17:45:29.517Z,81.50
2018-03-03T17:48:00.408Z,88.95
2018-03-03T17:50:27.826Z,92.72
2018-03-03T17:52:55.583Z,84.97
2018-03-03T17:55:23.001Z,89.78
2018-03-03T17:57:50.418Z,98.18
2018-03-03T18:00:17.839Z,88.00
2018-03-03T18:03:04.573Z,92.37
2018-03-03T18:05:31.981Z,86.68
2018-03-03T18:07:59.650Z,89.47
2018-03-03T18:10:34.726Z,91.47
2018-03-03T18:13:02.134Z,88.62
2018-03-03T18:15:29.562Z,90.97
2018-03-03T18:17:57.025Z,84.97
2018-03-03T18:20:24.434Z,93.30
2018-03-03T18:22:51.864Z,88.28
2018-03-03T18:25:19.278Z,94.07
2018-03-03T18:27:46.719Z,100.25
2018-03-03T18:30:14.133Z,92.18
2018-03-03T18:32:41.546Z,90.80
2018-03-03T18:35:26.314Z,89.10
2018-03-03T18:37:53.738Z,100.18
2018-03-03T18:40:21.173Z,92.90
2018-03-03T18:42:48.582Z,91.18
2018-03-03T18:45:15.998Z,94.50
2018-03-03T18:50:37.389Z,100.75
2018-03-03T18:53:04.818Z,101.45
2018-03-03T18:55:32.246Z,103.03
2018-03-03T18:57:59.654Z,96.20
2018-03-03T19:00:27.087Z,104.60
2018-03-03T19:02:54.494Z,96.63
2018-03-03T19:05:21.925Z,95.25
2018-03-03T19:07:49.385Z,91.95
2018-03-03T19:10:16.842Z,93.93
2018-03-03T19:12:44.267Z,88.97
2018-03-03T19:15:11.673Z,100.97
2018-03-03T19:17:39.114Z,85.82
2018-03-03T19:20:06.526Z,88.80
2018-03-03T19:22:33.942Z,90.30
2018-03-03T19:25:01.367Z,87.12
2018-03-03T19:27:28.798Z,93.37
2018-03-03T19:29:56.222Z,85.53
2018-03-03T19:32:23.638Z,92.15
2018-03-03T19:34:51.054Z,96.30
2018-03-03T19:37:18.482Z,97.05
2018-03-03T19:39:45.889Z,88.40
2018-03-03T19:42:13.382Z,96.80
2018-03-03T19:44:40.794Z,91.57
2018-03-03T19:47:08.215Z,90.05
2018-03-03T19:49:35.713Z,101.65
2018-03-03T19:52:03.071Z,95.60
2018-03-03T19:54:30.491Z,94.85
2018-03-03T19:56:57.914Z,87.78
2018-03-03T19:59:25.330Z,99.45
2018-03-03T20:01:52.764Z,102.55
2018-03-03T20:04:20.186Z,99.78
2018-03-03T20:06:47.618Z,92.93
2018-03-03T20:09:15.032Z,97.70
2018-03-03T20:11:42.442Z,95.57
2018-03-03T20:14:10.005Z,94.65
2018-03-03T20:16:37.426Z,101.50
2018-03-03T20:19:04.859Z,100.87
2018-03-03T20:21:32.272Z,91.18
2018-03-03T20:23:59.705Z,101.72
2018-03-03T20:26:27.126Z,106.93
2018-03-03T20:28:54.550Z,102.22
2018-03-03T20:31:21.990Z,91.22
2018-03-03T20:33:49.411Z,99.45
2018-03-03T20:36:16.823Z,94.05
2018-03-03T20:38:44.250Z,96.90
2018-03-03T20:41:11.667Z,95.47
2018-03-03T20:43:39.099Z,93.62
2018-03-03T20:46:06.519Z,105.00
2018-03-03T20:48:33.947Z,101.80
2018-03-03T20:51:01.367Z,95.47
2018-03-03T20:53:28.787Z,101.93
2018-03-03T20:55:56.219Z,99.05
2018-03-03T20:58:23.639Z,104.18
2018-03-03T21:00:51.055Z,102.50
2018-03-03T21:03:18.482Z,93.68
2018-03-03T21:05:45.904Z,102.80
2018-03-03T21:08:13.327Z,103.40
2018-03-03T21:10:40.740Z,98.82
2018-03-03T21:13:08.169Z,102.25
2018-03-03T21:15:35.578Z,97.68
2018-03-03T21:18:02.989Z,98.45
2018-03-03T21:20:30.405Z,98.82
2018-03-03T21:22:57.826Z,102.82
2018-03-03T21:25:25.259Z,98.97
2018-03-03T21:27:52.675Z,103.72
2018-03-03T21:30:20.094Z,103.93
2018-03-03T21:32:47.510Z,98.45
2018-03-03T21:35:14.931Z,103.07
2018-03-03T21:37:42.358Z,103.05
2018-03-03T21:40:09.786Z,117.40
2018-03-03T21:42:37.276Z,108.05
2018-03-03T21:45:04.698Z,103.22
2018-03-03T21:47:32.114Z,99.25
2018-03-03T21:49:59.538Z,112.95
2018-03-03T21:52:26.962Z,110.65
2018-03-03T21:54:54.552Z,108.47
2018-03-03T21:57:21.977Z,108.95
2018-03-03T21:59:49.393Z,111.05
2018-03-03T22:02:16.833Z,105.25
2018-03-03T22:04:44.245Z,109.15
2018-03-03T22:07:11.661Z,107.95
2018-03-03T22:09:39.089Z,115.78
2018-03-03T22:12:06.501Z,120.35
2018-03-03T22:14:33.930Z,113.70
2018-03-03T22:17:01.347Z,116.15
2018-03-03T22:19:28.758Z,112.82
2018-03-03T22:21:56.193Z,104.35
2018-03-03T22:24:23.627Z,110.90
2018-03-03T22:26:51.054Z,107.63
2018-03-03T22:29:18.477Z,105.78
2018-03-03T22:31:45.964Z,104.55
2018-03-03T22:34:13.375Z,114.28
2018-03-03T22:36:40.802Z,114.03
2018-03-03T22:39:08.221Z,120.90
2018-03-03T22:41:35.639Z,107.70
2018-03-03T22:44:03.061Z,100.95
2018-03-03T22:46:30.481Z,111.00
2018-03-03T22:48:57.914Z,107.07
2018-03-03T22:51:25.326Z,108.00
2018-03-03T22:53:52.749Z,114.35
2018-03-03T22:56:20.174Z,107.57
2018-03-03T22:58:47.592Z,105.95
2018-03-03T23:01:15.031Z,110.53
2018-03-03T23:03:42.450Z,103.80
2018-03-03T23:06:09.866Z,105.50
2018-03-03T23:08:37.290Z,106.10
2018-03-03T23:11:04.706Z,110.35
2018-03-03T23:13:32.139Z,107.25
2018-03-03T23:15:59.563Z,112.68
2018-03-03T23:18:26.981Z,108.85
2018-03-03T23:20:54.410Z,100.57
2018-03-03T23:23:21.826Z,107.97
2018-03-03T23:25:49.250Z,108.00
2018-03-03T23:28:16.676Z,107.37
2018-03-03T23:30:44.093Z,117.70
2018-03-03T23:33:11.506Z,100.80
2018-03-03T23:35:38.937Z,107.93
2018-03-03T23:38:06.361Z,116.18
2018-03-03T23:40:33.781Z,104.38
2018-03-03T23:43:01.202Z,116.90
2018-03-03T23:45:28.622Z,115.40
2018-03-03T23:47:56.046Z,111.75
2018-03-03T23:50:23.474Z,116.68
2018-03-03T23:52:50.886Z,108.90
2018-03-03T23:55:18.312Z,110.95
2018-03-03T23:57:45.729Z,116.93
